createdAt,value
2023-04-14T00:00:23.083Z,100113.19
2023-04-14T00:02:49.684Z,100102.03
2023-04-14T00:05:16.586Z,100103.78
2023-04-14T00:07:43.103Z,100105.63
2023-04-14T00:10:10.268Z,100105.63
2023-04-14T00:12:36.759Z,100108.25
2023-04-14T00:15:03.420Z,100109.09
2023-04-14T00:17:31.063Z,100105.69
2023-04-14T00:19:57.552Z,100114.28
2023-04-14T00:22:23.999Z,100121.16
2023-04-14T00:24:50.777Z,100122.03
2023-04-14T00:27:17.293Z,100117.78
2023-04-14T00:29:43.720Z,100120.41
2023-04-14T00:32:10.176Z,100115.38
2023-04-14T00:34:36.603Z,100123.13
2023-04-14T00:37:03.069Z,100124.00
2023-04-14T00:39:29.487Z,100112.81
2023-04-14T00:41:56.747Z,100116.34
2023-04-14T00:44:25.322Z,100120.75
2023-04-14T00:46:52.854Z,100115.69
2023-04-14T00:49:20.092Z,100122.66
2023-04-14T00:51:48.054Z,100122.75
2023-04-14T00:54:17.687Z,100131.44
2023-04-14T00:56:45.503Z,100137.59
2023-04-14T00:59:13.780Z,100136.72
2023-04-14T01:01:41.324Z,100135.84
2023-04-14T01:04:08.714Z,100139.25
2023-04-14T01:06:36.473Z,100143.47
2023-04-14T01:09:04.232Z,100145.13
2023-04-14T01:11:47.630Z,100147.72
2023-04-14T01:14:27.885Z,100144.31
2023-04-14T01:17:01.664Z,100153.94
2023-04-14T01:19:43.062Z,100148.84
2023-04-14T01:22:12.640Z,100152.28
2023-04-14T01:25:15.377Z,100157.41
2023-04-14T01:28:06.533Z,100173.00
2023-04-14T01:30:32.985Z,100162.63
2023-04-14T01:33:04.476Z,100166.06
2023-04-14T01:35:39.193Z,100166.13
2023-04-14T01:38:14.817Z,100164.56
2023-04-14T01:40:49.562Z,100161.16
2023-04-14T01:43:17.493Z,100168.94
2023-04-14T01:45:50.100Z,100164.66
2023-04-14T01:48:17.471Z,100164.66
2023-04-14T01:50:44.523Z,100166.31
2023-04-14T01:53:13.371Z,100165.50
2023-04-14T01:55:41.395Z,100166.34
2023-04-14T01:58:09.813Z,100156.88
2023-04-14T02:00:38.259Z,100169.84
2023-04-14T02:03:06.352Z,100168.16
2023-04-14T02:05:39.151Z,100166.41
2023-04-14T02:08:10.204Z,100171.56
2023-04-14T02:10:39.256Z,100178.47
2023-04-14T02:13:07.417Z,100168.13
2023-04-14T02:15:34.879Z,100167.28
2023-04-14T02:18:04.509Z,100175.03
2023-04-14T02:20:32.427Z,100180.22
2023-04-14T02:23:00.252Z,100174.16
2023-04-14T02:25:32.252Z,100176.78
2023-04-14T02:28:08.784Z,100172.47
2023-04-14T02:30:41.105Z,100175.88
2023-04-14T02:33:10.736Z,100177.66
2023-04-14T02:35:47.194Z,100187.16
2023-04-14T02:38:31.100Z,100177.69
2023-04-14T02:41:00.651Z,100177.66
2023-04-14T02:43:32.259Z,100184.56
2023-04-14T02:46:02.836Z,100180.28
2023-04-14T02:48:33.283Z,100184.63
2023-04-14T02:51:02.133Z,100177.72
2023-04-14T02:53:29.540Z,100181.19
2023-04-14T02:55:57.949Z,100177.75
2023-04-14T02:58:25.537Z,100176.88
2023-04-14T03:00:52.871Z,100177.75
2023-04-14T03:03:19.779Z,100177.75
2023-04-14T03:05:47.456Z,100178.63
2023-04-14T03:08:15.998Z,100185.53
2023-04-14T03:10:46.228Z,100192.44
2023-04-14T03:13:14.451Z,100195.03
2023-04-14T03:15:42.799Z,100187.22
2023-04-14T03:18:10.418Z,100187.22
2023-04-14T03:20:38.004Z,100183.78
2023-04-14T03:23:07.762Z,100183.81
2023-04-14T03:25:38.154Z,100186.41
2023-04-14T03:28:09.503Z,100189.00
2023-04-14T03:30:40.490Z,100186.44
2023-04-14T03:33:09.051Z,100188.13
2023-04-14T03:35:37.526Z,100189.84
2023-04-14T03:38:09.084Z,100189.84
2023-04-14T03:40:38.569Z,100194.19
2023-04-14T03:43:09.765Z,100184.66
2023-04-14T03:45:39.058Z,100186.41
2023-04-14T03:48:09.906Z,100195.91
2023-04-14T03:50:42.063Z,100197.63
2023-04-14T03:53:12.654Z,100202.81
2023-04-14T03:55:42.271Z,100195.91
2023-04-14T03:58:10.982Z,100199.34
2023-04-14T04:00:38.847Z,100195.88
2023-04-14T04:03:06.184Z,100191.56
2023-04-14T04:05:34.622Z,100199.38
2023-04-14T04:08:03.193Z,100195.03
2023-04-14T04:10:33.770Z,100192.44
2023-04-14T04:13:08.006Z,100204.53
2023-04-14T04:15:35.069Z,100207.97
2023-04-14T04:18:03.366Z,100210.56
2023-04-14T04:20:32.613Z,100214.00
2023-04-14T04:23:01.666Z,100220.03
2023-04-14T04:25:28.176Z,100222.63
2023-04-14T04:27:54.873Z,100218.34
2023-04-14T04:30:23.999Z,100217.47
2023-04-14T04:32:51.283Z,100220.91
2023-04-14T04:35:18.587Z,100219.19
2023-04-14T04:37:46.253Z,100217.44
2023-04-14T04:40:12.717Z,100222.59
2023-04-14T04:42:43.348Z,100224.34
2023-04-14T04:45:10.283Z,100232.06
2023-04-14T04:47:36.834Z,100228.63
2023-04-14T04:50:03.589Z,100232.09
2023-04-14T04:52:30.226Z,100230.41
2023-04-14T04:54:56.708Z,100226.97
2023-04-14T04:57:23.115Z,100226.94
2023-04-14T04:59:49.506Z,100222.63
2023-04-14T05:02:16.374Z,100221.75
2023-04-14T05:04:43.412Z,100226.09
2023-04-14T05:07:09.835Z,100222.63
2023-04-14T05:09:36.569Z,100231.25
2023-04-14T05:12:03.299Z,100231.25
2023-04-14T05:14:29.735Z,100222.66
2023-04-14T05:16:56.964Z,100222.66
2023-04-14T05:19:23.786Z,100237.31
2023-04-14T05:21:50.518Z,100227.81
2023-04-14T05:24:16.981Z,100228.69
2023-04-14T05:29:12.820Z,100233.88
2023-04-14T05:31:39.341Z,100240.78
2023-04-14T05:34:06.068Z,100249.41
2023-04-14T05:36:32.548Z,100245.06
2023-04-14T05:38:59.036Z,100244.19
2023-04-14T05:41:25.571Z,100242.44
2023-04-14T05:43:52.009Z,100234.72
2023-04-14T05:46:18.474Z,100234.72
2023-04-14T05:48:44.952Z,100235.56
2023-04-14T05:51:11.587Z,100238.16
2023-04-14T05:53:38.002Z,100242.50
2023-04-14T05:56:04.737Z,100245.06
2023-04-14T05:58:31.156Z,100238.19
2023-04-14T06:00:57.566Z,100239.91
2023-04-14T06:03:24.272Z,100236.47
2023-04-14T06:05:53.001Z,100239.06
2023-04-14T06:08:20.352Z,100234.75
2023-04-14T06:10:47.082Z,100230.41
2023-04-14T06:13:13.635Z,100227.81
2023-04-14T06:15:40.229Z,100228.63
2023-04-14T06:18:06.802Z,100228.63
2023-04-14T06:20:34.892Z,100232.03
2023-04-14T06:23:01.355Z,100231.16
2023-04-14T06:25:27.899Z,100226.84
2023-04-14T06:27:54.368Z,100226.78
2023-04-14T06:30:20.841Z,100225.03
2023-04-14T06:32:48.670Z,100217.19
2023-04-14T06:35:29.685Z,100218.88
2023-04-14T06:37:59.130Z,100217.94
2023-04-14T06:40:25.631Z,100211.88
2023-04-14T06:42:52.233Z,100223.94
2023-04-14T06:45:18.888Z,100222.16
2023-04-14T06:47:45.499Z,100217.75
2023-04-14T06:50:12.560Z,100218.63
2023-04-14T06:52:39.100Z,100218.56
2023-04-14T06:55:05.870Z,100212.50
2023-04-14T06:57:32.383Z,100222.84
2023-04-14T06:59:58.838Z,100214.16
2023-04-14T07:02:25.511Z,100210.66
2023-04-14T07:04:52.115Z,100205.47
2023-04-14T07:07:18.628Z,100201.09
2023-04-14T07:09:45.277Z,100208.81
2023-04-14T07:12:15.896Z,100203.59
2023-04-14T07:14:42.874Z,100195.78
2023-04-14T07:17:09.601Z,100199.19
2023-04-14T07:19:36.188Z,100193.13
2023-04-14T07:22:02.693Z,100195.69
2023-04-14T07:24:29.116Z,100196.50
2023-04-14T07:26:55.580Z,100186.94
2023-04-14T07:29:21.994Z,100187.81
2023-04-14T07:31:48.578Z,100200.84
2023-04-14T07:34:15.139Z,100192.97
2023-04-14T07:36:41.582Z,100187.75
2023-04-14T07:39:08.083Z,100188.53
2023-04-14T07:41:34.547Z,100185.84
2023-04-14T07:44:01.156Z,100180.63
2023-04-14T07:46:27.871Z,100183.16
2023-04-14T07:48:54.595Z,100183.97
2023-04-14T07:51:21.405Z,100182.22
2023-04-14T07:53:47.927Z,100181.28
2023-04-14T07:56:15.093Z,100177.81
2023-04-14T07:58:41.635Z,100177.72
2023-04-14T08:01:08.297Z,100175.00
2023-04-14T08:03:38.987Z,100175.78
2023-04-14T08:06:07.528Z,100174.00
2023-04-14T08:08:35.047Z,100177.50
2023-04-14T08:11:01.594Z,100175.69
2023-04-14T08:13:28.070Z,100171.25
2023-04-14T08:15:54.596Z,100172.94
2023-04-14T08:18:21.552Z,100171.22
2023-04-14T08:20:48.805Z,100176.41
2023-04-14T08:23:15.570Z,100181.47
2023-04-14T08:25:42.486Z,100177.84
2023-04-14T08:28:09.034Z,100177.66
2023-04-14T08:30:35.770Z,100176.72
2023-04-14T08:33:02.208Z,100167.25
2023-04-14T08:35:41.018Z,100161.13
2023-04-14T08:38:08.939Z,100168.72
2023-04-14T08:40:39.132Z,100169.47
2023-04-14T08:43:06.439Z,100170.28
2023-04-14T08:45:33.341Z,100172.78
2023-04-14T08:48:02.234Z,100161.19
2023-04-14T08:50:36.230Z,100154.41
2023-04-14T08:53:06.247Z,100162.88
2023-04-14T08:55:33.685Z,100159.44
2023-04-14T08:58:02.345Z,100161.25
2023-04-14T09:00:29.057Z,100155.16
2023-04-14T09:02:56.700Z,100159.31
2023-04-14T09:05:23.830Z,100156.22
2023-04-14T09:07:51.154Z,100157.91
2023-04-14T09:10:17.810Z,100159.34
2023-04-14T09:12:45.207Z,100159.84
2023-04-14T09:15:12.247Z,100152.97
2023-04-14T09:17:38.972Z,100150.22
2023-04-14T09:20:36.891Z,100152.19
2023-04-14T09:22:53.486Z,100147.97
2023-04-14T09:25:21.069Z,100148.09
2023-04-14T09:27:49.570Z,100145.22
2023-04-14T09:30:17.674Z,100142.69
2023-04-14T09:32:44.988Z,100139.22
2023-04-14T09:35:13.940Z,100137.38
2023-04-14T09:37:44.727Z,100133.06
2023-04-14T09:40:11.947Z,100133.69
2023-04-14T09:42:40.240Z,100133.56
2023-04-14T09:45:08.292Z,100129.34
2023-04-14T09:47:34.948Z,100137.78
2023-04-14T09:50:03.664Z,100127.59
2023-04-14T09:52:41.374Z,100133.81
2023-04-14T09:55:13.663Z,100135.06
2023-04-14T09:57:44.588Z,100129.16
2023-04-14T10:00:21.690Z,100128.53
2023-04-14T10:02:55.924Z,100120.09
2023-04-14T10:05:27.208Z,100122.91
2023-04-14T10:07:53.826Z,100117.59
2023-04-14T10:10:20.348Z,100125.38
2023-04-14T10:12:46.957Z,100118.38
2023-04-14T10:15:15.373Z,100112.06
2023-04-14T10:17:42.698Z,100111.59
2023-04-14T10:20:10.287Z,100103.81
2023-04-14T10:22:37.985Z,100087.91
2023-04-14T10:25:07.069Z,100086.75
2023-04-14T10:27:34.461Z,100089.72
2023-04-14T10:30:01.676Z,100088.41
2023-04-14T10:32:35.382Z,100081.66
2023-04-14T10:35:07.447Z,100086.75
2023-04-14T10:37:34.927Z,100083.16
2023-04-14T10:40:05.487Z,100090.53
2023-04-14T10:42:57.234Z,100079.59
2023-04-14T10:45:23.968Z,100069.56
2023-04-14T10:47:51.298Z,100068.81
2023-04-14T10:50:22.440Z,100058.06
2023-04-14T10:52:56.675Z,100045.53
2023-04-14T10:55:28.009Z,100050.66
2023-04-14T10:58:06.402Z,100047.97
2023-04-14T11:00:38.707Z,100046.88
2023-04-14T11:03:10.707Z,100037.09
2023-04-14T11:05:48.138Z,100033.00
2023-04-14T11:08:25.040Z,100022.81
2023-04-14T11:11:02.297Z,100030.03
2023-04-14T11:13:30.746Z,100032.41
2023-04-14T11:16:05.113Z,100027.34
2023-04-14T11:18:38.615Z,100031.94
2023-04-14T11:21:06.742Z,100028.88
2023-04-14T11:23:34.775Z,100019.06
2023-04-14T11:26:01.987Z,100022.13
2023-04-14T11:28:28.391Z,100019.38
2023-04-14T11:30:57.269Z,100019.13
2023-04-14T11:33:27.460Z,100016.69
2023-04-14T11:35:54.332Z,100014.75
2023-04-14T11:38:21.085Z,100014.88
2023-04-14T11:40:51.869Z,100018.50
2023-04-14T11:43:19.782Z,100007.00
2023-04-14T11:45:48.622Z,100006.03
2023-04-14T11:48:21.763Z,100008.28
2023-04-14T11:50:48.612Z,100006.84
2023-04-14T11:53:17.545Z,100011.97
2023-04-14T11:55:46.592Z,100007.84
2023-04-14T11:58:14.953Z,99997.56
2023-04-14T12:00:43.070Z,99992.72
2023-04-14T12:03:09.748Z,99996.25
2023-04-14T12:05:37.570Z,99991.72
2023-04-14T12:08:07.564Z,99995.28
2023-04-14T12:10:34.881Z,99997.25
2023-04-14T12:13:03.059Z,99995.84
2023-04-14T12:15:34.643Z,99987.97
2023-04-14T12:18:01.872Z,99982.25
2023-04-14T12:20:30.552Z,99991.69
2023-04-14T12:23:04.672Z,99991.28
2023-04-14T12:25:33.011Z,99980.50
2023-04-14T12:28:02.329Z,99977.16
2023-04-14T12:30:29.568Z,99976.41
2023-04-14T12:32:56.483Z,99968.34
2023-04-14T12:35:23.931Z,99970.31
2023-04-14T12:37:51.561Z,99978.88
2023-04-14T12:40:36.613Z,99976.84
2023-04-14T12:43:03.117Z,99966.53
2023-04-14T12:45:40.014Z,99974.31
2023-04-14T12:48:06.836Z,99966.28
2023-04-14T12:50:33.947Z,99957.41
2023-04-14T12:53:01.459Z,99965.78
2023-04-14T12:55:30.226Z,99966.63
2023-04-14T12:57:58.639Z,99962.66
2023-04-14T13:00:27.591Z,99958.38
2023-04-14T13:02:55.642Z,99950.31
2023-04-14T13:05:22.654Z,99943.00
2023-04-14T13:07:49.322Z,99947.34
2023-04-14T13:10:15.921Z,99950.22
2023-04-14T13:12:42.743Z,99939.31
2023-04-14T13:15:09.837Z,99946.13
2023-04-14T13:17:56.449Z,99933.91
2023-04-14T13:20:22.943Z,99930.94
2023-04-14T13:22:49.380Z,99939.66
2023-04-14T13:25:16.002Z,99935.41
2023-04-14T13:27:42.413Z,99924.91
2023-04-14T13:30:09.421Z,99921.13
2023-04-14T13:32:35.993Z,99926.50
2023-04-14T13:35:02.584Z,99917.22
2023-04-14T13:37:29.044Z,99920.38
2023-04-14T13:39:55.540Z,99919.13
2023-04-14T13:42:21.995Z,99911.38
2023-04-14T13:44:48.538Z,99910.84
2023-04-14T13:47:15.007Z,99910.66
2023-04-14T13:49:41.459Z,99911.50
2023-04-14T13:52:08.201Z,99904.19
2023-04-14T13:54:35.373Z,99909.72
2023-04-14T13:57:04.073Z,99904.31
2023-04-14T13:59:30.514Z,99899.22
2023-04-14T14:01:57.034Z,99898.38
2023-04-14T14:04:23.943Z,99910.13
2023-04-14T14:06:50.687Z,99906.00
2023-04-14T14:09:17.118Z,99903.06
2023-04-14T14:11:44.622Z,99898.81
2023-04-14T14:14:12.773Z,99900.72
2023-04-14T14:16:39.371Z,99888.00
2023-04-14T14:19:08.201Z,99885.69
2023-04-14T14:21:34.775Z,99882.44
2023-04-14T14:24:01.530Z,99875.91
2023-04-14T14:26:28.249Z,99873.84
2023-04-14T14:28:54.668Z,99882.00
2023-04-14T14:31:21.255Z,99872.81
2023-04-14T14:33:47.939Z,99871.97
2023-04-14T14:36:15.332Z,99873.50
2023-04-14T14:38:41.786Z,99875.78
2023-04-14T14:41:08.204Z,99865.91
2023-04-14T14:43:35.035Z,99864.75
2023-04-14T14:46:01.667Z,99872.28
2023-04-14T14:48:28.239Z,99867.00
2023-04-14T14:50:54.726Z,99863.28
2023-04-14T14:53:21.132Z,99863.81
2023-04-14T14:55:47.598Z,99865.03
2023-04-14T14:58:14.027Z,99849.03
2023-04-14T15:00:40.459Z,99855.25
2023-04-14T15:03:07.101Z,99851.75
2023-04-14T15:05:33.799Z,99858.63
2023-04-14T15:08:00.721Z,99850.53
2023-04-14T15:10:27.259Z,99856.28
2023-04-14T15:12:53.816Z,99849.84
2023-04-14T15:15:20.274Z,99851.19
2023-04-14T15:17:46.949Z,99851.78
2023-04-14T15:20:13.479Z,99836.16
2023-04-14T15:22:40.003Z,99841.22
2023-04-14T15:25:08.957Z,99844.22
2023-04-14T15:27:35.648Z,99843.00
2023-04-14T15:30:02.297Z,99846.72
2023-04-14T15:32:28.867Z,99836.09
2023-04-14T15:34:55.837Z,99841.41
2023-04-14T15:37:22.357Z,99832.53
2023-04-14T15:39:48.822Z,99832.47
2023-04-14T15:42:15.582Z,99830.84
2023-04-14T15:44:42.014Z,99836.13
2023-04-14T15:47:08.440Z,99829.13
2023-04-14T15:49:34.868Z,99831.88
2023-04-14T15:52:01.866Z,99828.63
2023-04-14T15:54:28.969Z,99832.38
2023-04-14T15:56:55.419Z,99829.66
2023-04-14T15:59:22.259Z,99831.69
2023-04-14T16:01:48.877Z,99827.16
2023-04-14T16:04:15.553Z,99821.53
2023-04-14T16:06:42.090Z,99825.09
2023-04-14T16:09:08.584Z,99818.78
2023-04-14T16:11:35.068Z,99821.19
2023-04-14T16:14:01.730Z,99828.41
2023-04-14T16:16:28.623Z,99831.22
2023-04-14T16:18:55.132Z,99836.41
2023-04-14T16:21:21.595Z,99840.34
2023-04-14T16:23:48.038Z,99828.78
2023-04-14T16:26:16.075Z,99828.66
2023-04-14T16:28:43.434Z,99838.38
2023-04-14T16:31:09.908Z,99829.44
2023-04-14T16:33:36.472Z,99829.13
2023-04-14T16:36:04.129Z,99830.47
2023-04-14T16:38:30.940Z,99832.44
2023-04-14T16:40:58.788Z,99831.50
2023-04-14T16:43:27.000Z,99825.53
2023-04-14T16:46:00.088Z,99828.94
2023-04-14T16:48:26.670Z,99823.53
2023-04-14T16:50:53.883Z,99827.59
2023-04-14T16:53:20.365Z,99830.63
2023-04-14T16:55:46.830Z,99832.63
2023-04-14T16:58:13.294Z,99833.66
2023-04-14T17:00:39.900Z,99832.25
2023-04-14T17:03:06.946Z,99828.69
2023-04-14T17:05:33.718Z,99828.69
2023-04-14T17:08:00.334Z,99832.59
2023-04-14T17:10:28.924Z,99831.09
2023-04-14T17:12:55.401Z,99832.38
2023-04-14T17:15:21.923Z,99830.19
2023-04-14T17:17:48.446Z,99825.94
2023-04-14T17:20:15.376Z,99823.00
2023-04-14T17:22:42.505Z,99823.19
2023-04-14T17:25:10.662Z,99828.94
2023-04-14T17:27:37.903Z,99819.56
2023-04-14T17:30:05.361Z,99828.56
2023-04-14T17:32:32.519Z,99827.84
2023-04-14T17:34:59.733Z,99823.44
2023-04-14T17:37:26.639Z,99820.97
2023-04-14T17:39:53.199Z,99821.91
2023-04-14T17:42:19.645Z,99827.78
2023-04-14T17:44:46.047Z,99824.81
2023-04-14T17:47:15.660Z,99826.13
2023-04-14T17:49:42.977Z,99829.09
2023-04-14T17:52:11.004Z,99823.22
2023-04-14T17:54:37.559Z,99827.16
2023-04-14T17:57:04.387Z,99835.25
2023-04-14T17:59:31.530Z,99842.75
2023-04-14T18:01:58.591Z,99843.06
2023-04-14T18:04:25.463Z,99835.44
2023-04-14T18:06:52.075Z,99843.00
2023-04-14T18:09:18.565Z,99844.19
2023-04-14T18:11:45.286Z,99851.38
2023-04-14T18:14:11.725Z,99851.78
2023-04-14T18:16:38.975Z,99845.16
2023-04-14T18:19:06.006Z,99855.09
2023-04-14T18:21:32.465Z,99866.97
2023-04-14T18:26:29.749Z,99872.97
2023-04-14T18:28:56.945Z,99881.84
2023-04-14T18:31:23.647Z,99877.88
2023-04-14T18:33:50.974Z,99879.97
2023-04-14T18:36:17.639Z,99889.03
2023-04-14T18:38:44.067Z,99886.78
2023-04-14T18:41:10.484Z,99894.03
2023-04-14T18:43:36.948Z,99899.59
2023-04-14T18:46:03.875Z,99899.91
2023-04-14T18:48:30.403Z,99902.91
2023-04-14T18:51:07.948Z,99898.69
2023-04-14T18:53:34.692Z,99910.34
2023-04-14T18:56:01.737Z,99909.56
2023-04-14T18:58:30.228Z,99904.78
2023-04-14T19:00:57.294Z,99912.66
2023-04-14T19:03:24.134Z,99907.59
2023-04-14T19:05:50.900Z,99916.50
2023-04-14T19:08:17.380Z,99921.13
2023-04-14T19:10:47.709Z,99914.31
2023-04-14T19:13:17.895Z,99918.78
2023-04-14T19:15:44.424Z,99910.06
2023-04-14T19:18:11.470Z,99911.16
2023-04-14T19:20:38.531Z,99921.06
2023-04-14T19:23:05.066Z,99924.88
2023-04-14T19:25:31.545Z,99926.72
2023-04-14T19:27:59.712Z,99923.63
2023-04-14T19:30:26.190Z,99922.97
2023-04-14T19:32:54.420Z,99926.91
2023-04-14T19:35:22.402Z,99929.75
2023-04-14T19:37:48.842Z,99931.56
2023-04-14T19:40:15.330Z,99932.69
2023-04-14T19:42:42.098Z,99935.41
2023-04-14T19:45:10.170Z,99938.03
2023-04-14T19:47:36.695Z,99932.94
2023-04-14T19:50:04.360Z,99933.75
2023-04-14T19:52:30.860Z,99938.41
2023-04-14T19:54:58.125Z,99940.97
2023-04-14T19:57:24.751Z,99935.88
2023-04-14T19:59:51.173Z,99941.50
2023-04-14T20:02:17.976Z,99932.91
2023-04-14T20:04:45.108Z,99934.00
2023-04-14T20:07:11.643Z,99933.19
2023-04-14T20:09:39.766Z,99935.84
2023-04-14T20:12:06.237Z,99938.59
2023-04-14T20:14:32.983Z,99943.06
2023-04-14T20:16:59.607Z,99940.59
2023-04-14T20:19:26.184Z,99940.78
2023-04-14T20:21:52.614Z,99938.38
2023-04-14T20:24:19.947Z,99939.53
2023-04-14T20:26:46.471Z,99938.88
2023-04-14T20:29:12.905Z,99942.44
2023-04-14T20:31:41.520Z,99937.22
2023-04-14T20:34:08.914Z,99941.78
2023-04-14T20:36:36.170Z,99942.13
2023-04-14T20:39:05.540Z,99939.06
2023-04-14T20:41:33.889Z,99937.19
2023-04-14T20:44:00.675Z,99942.84
2023-04-14T20:46:27.918Z,99946.41
2023-04-14T20:48:54.766Z,99938.47
2023-04-14T20:51:21.346Z,99950.84
2023-04-14T20:53:47.802Z,99944.41
2023-04-14T20:56:14.295Z,99951.66
2023-04-14T20:58:40.755Z,99942.88
2023-04-14T21:01:07.341Z,99945.63
2023-04-14T21:03:34.607Z,99948.47
2023-04-14T21:06:01.676Z,99944.34
2023-04-14T21:08:29.702Z,99948.91
2023-04-14T21:11:15.678Z,99950.78
2023-04-14T21:15:44.296Z,99944.97
2023-04-14T21:16:29.937Z,99949.25
2023-04-14T21:18:57.059Z,99949.25
2023-04-14T21:21:23.501Z,99950.34
2023-04-14T21:23:50.041Z,99949.25
2023-04-14T21:26:16.641Z,99948.34
2023-04-14T21:28:43.126Z,99950.13
2023-04-14T21:31:10.433Z,99947.50
2023-04-14T21:33:39.391Z,99949.34
2023-04-14T21:36:06.173Z,99942.38
2023-04-14T21:38:33.447Z,99951.09
2023-04-14T21:40:59.878Z,99952.06
2023-04-14T21:43:26.765Z,99954.63
2023-04-14T21:45:54.174Z,99952.13
2023-04-14T21:48:20.786Z,99948.06
2023-04-14T21:50:47.303Z,99946.16
2023-04-14T21:53:13.920Z,99948.81
2023-04-14T21:55:41.039Z,99947.16
2023-04-14T21:58:07.541Z,99948.94
2023-04-14T22:00:34.017Z,99942.09
2023-04-14T22:03:00.641Z,99949.22
2023-04-14T22:05:27.247Z,99944.84
2023-04-14T22:07:54.990Z,99944.22
2023-04-14T22:10:21.980Z,99956.63
2023-04-14T22:12:48.505Z,99954.09
2023-04-14T22:15:15.542Z,99961.13
2023-04-14T22:17:42.190Z,99942.72
2023-04-14T22:20:09.752Z,99952.31
2023-04-14T22:22:36.537Z,99951.28
2023-04-14T22:25:04.049Z,99951.63
2023-04-14T22:27:33.010Z,99950.00
2023-04-14T22:29:59.475Z,99955.16
2023-04-14T22:32:26.249Z,99954.47
2023-04-14T22:34:52.950Z,99962.31
2023-04-14T22:37:19.480Z,99954.69
2023-04-14T22:39:46.429Z,99962.59
2023-04-14T22:42:13.124Z,99961.00
2023-04-14T22:44:39.577Z,99961.22
2023-04-14T22:47:06.146Z,99956.09
2023-04-14T22:49:32.595Z,99957.81
2023-04-14T22:51:59.009Z,99963.97
2023-04-14T22:54:25.464Z,99957.88
2023-04-14T22:56:52.227Z,99962.47
2023-04-14T22:59:18.893Z,99963.44
2023-04-14T23:01:45.434Z,99965.06
2023-04-14T23:04:12.039Z,99956.38
2023-04-14T23:06:38.613Z,99962.56
2023-04-14T23:09:05.588Z,99961.72
2023-04-14T23:11:32.674Z,99962.63
2023-04-14T23:13:59.153Z,99970.41
2023-04-14T23:16:25.705Z,99972.25
2023-04-14T23:18:52.906Z,99963.59
2023-04-14T23:21:23.307Z,99968.88
2023-04-14T23:23:50.449Z,99965.47
2023-04-14T23:26:19.346Z,99961.16
2023-04-14T23:28:45.908Z,99966.53
2023-04-14T23:31:12.429Z,99963.13
2023-04-14T23:33:39.045Z,99965.63
2023-04-14T23:36:06.909Z,99972.59
2023-04-14T23:38:33.522Z,99967.44
2023-04-14T23:41:00.417Z,99968.44
2023-04-14T23:43:28.523Z,99965.00
2023-04-14T23:45:55.801Z,99964.25
2023-04-14T23:48:22.346Z,99962.41
2023-04-14T23:51:00.869Z,99958.88
2023-04-14T23:53:35.360Z,99961.53
2023-04-14T23:56:04.185Z,99963.25
2023-04-14T23:58:31.431Z,99955.47
